sensor_id;sensor_type;location;lat;lon;timestamp;P1;durP1;ratioP1;P2;durP2;ratioP2
73733;SDS011;62039;50.000;9.064;2023-07-02T00:01:52;2.17;;;1.73;;
73733;SDS011;62039;50.000;9.064;2023-07-02T00:04:19;1.53;;;1.43;;
73733;SDS011;62039;50.000;9.064;2023-07-02T00:06:47;3.00;;;1.70;;
73733;SDS011;62039;50.000;9.064;2023-07-02T00:09:16;1.70;;;1.37;;
73733;SDS011;62039;50.000;9.064;2023-07-02T00:11:44;1.50;;;1.40;;
73733;SDS011;62039;50.000;9.064;2023-07-02T00:14:12;1.20;;;1.10;;
73733;SDS011;62039;50.000;9.064;2023-07-02T00:16:41;1.47;;;1.37;;
73733;SDS011;62039;50.000;9.064;2023-07-02T00:19:10;2.20;;;1.50;;
73733;SDS011;62039;50.000;9.064;2023-07-02T00:21:37;1.50;;;1.40;;
73733;SDS011;62039;50.000;9.064;2023-07-02T00:24:04;1.30;;;1.20;;
73733;SDS011;62039;50.000;9.064;2023-07-02T00:26:34;1.53;;;1.40;;
73733;SDS011;62039;50.000;9.064;2023-07-02T00:29:01;1.27;;;1.17;;
73733;SDS011;62039;50.000;9.064;2023-07-02T00:31:28;1.40;;;1.30;;
73733;SDS011;62039;50.000;9.064;2023-07-02T00:33:55;1.63;;;1.40;;
73733;SDS011;62039;50.000;9.064;2023-07-02T00:36:22;1.43;;;1.33;;
73733;SDS011;62039;50.000;9.064;2023-07-02T00:38:49;1.23;;;1.13;;
73733;SDS011;62039;50.000;9.064;2023-07-02T00:41:16;2.00;;;1.30;;
73733;SDS011;62039;50.000;9.064;2023-07-02T00:43:46;1.40;;;1.30;;
73733;SDS011;62039;50.000;9.064;2023-07-02T00:46:13;1.43;;;1.33;;
73733;SDS011;62039;50.000;9.064;2023-07-02T00:48:43;1.50;;;1.27;;
73733;SDS011;62039;50.000;9.064;2023-07-02T00:51:10;1.73;;;1.50;;
73733;SDS011;62039;50.000;9.064;2023-07-02T00:53:39;1.47;;;1.37;;
73733;SDS011;62039;50.000;9.064;2023-07-02T00:56:06;2.00;;;1.00;;
73733;SDS011;62039;50.000;9.064;2023-07-02T00:58:33;2.23;;;1.40;;
73733;SDS011;62039;50.000;9.064;2023-07-02T01:01:07;1.50;;;1.30;;
73733;SDS011;62039;50.000;9.064;2023-07-02T01:03:34;1.60;;;1.20;;
73733;SDS011;62039;50.000;9.064;2023-07-02T01:06:01;1.83;;;1.20;;
73733;SDS011;62039;50.000;9.064;2023-07-02T01:08:28;1.60;;;1.20;;
73733;SDS011;62039;50.000;9.064;2023-07-02T01:10:55;1.30;;;1.20;;
73733;SDS011;62039;50.000;9.064;2023-07-02T01:13:23;1.30;;;1.17;;
73733;SDS011;62039;50.000;9.064;2023-07-02T01:15:52;1.50;;;1.30;;
73733;SDS011;62039;50.000;9.064;2023-07-02T01:18:21;1.93;;;1.23;;
73733;SDS011;62039;50.000;9.064;2023-07-02T01:20:52;2.43;;;1.33;;
73733;SDS011;62039;50.000;9.064;2023-07-02T01:23:19;1.37;;;1.27;;
73733;SDS011;62039;50.000;9.064;2023-07-02T01:25:47;2.00;;;1.63;;
73733;SDS011;62039;50.000;9.064;2023-07-02T01:28:14;1.67;;;1.20;;
73733;SDS011;62039;50.000;9.064;2023-07-02T01:30:41;1.80;;;1.40;;
73733;SDS011;62039;50.000;9.064;2023-07-02T01:33:08;2.10;;;1.70;;
73733;SDS011;62039;50.000;9.064;2023-07-02T01:35:35;1.23;;;1.10;;
73733;SDS011;62039;50.000;9.064;2023-07-02T01:38:05;1.30;;;1.20;;
73733;SDS011;62039;50.000;9.064;2023-07-02T01:40:32;2.40;;;1.13;;
73733;SDS011;62039;50.000;9.064;2023-07-02T01:42:59;3.47;;;1.30;;
73733;SDS011;62039;50.000;9.064;2023-07-02T01:45:26;1.53;;;1.40;;
73733;SDS011;62039;50.000;9.064;2023-07-02T01:47:53;2.43;;;1.17;;
73733;SDS011;62039;50.000;9.064;2023-07-02T01:50:20;1.30;;;1.13;;
73733;SDS011;62039;50.000;9.064;2023-07-02T01:52:47;2.80;;;1.43;;
73733;SDS011;62039;50.000;9.064;2023-07-02T01:55:16;1.20;;;1.10;;
73733;SDS011;62039;50.000;9.064;2023-07-02T01:57:43;3.60;;;1.47;;
73733;SDS011;62039;50.000;9.064;2023-07-02T02:00:11;2.43;;;1.30;;
73733;SDS011;62039;50.000;9.064;2023-07-02T02:02:38;1.37;;;1.20;;
73733;SDS011;62039;50.000;9.064;2023-07-02T02:05:06;1.97;;;1.33;;
73733;SDS011;62039;50.000;9.064;2023-07-02T02:07:33;1.70;;;1.20;;
73733;SDS011;62039;50.000;9.064;2023-07-02T02:10:00;1.97;;;1.40;;
73733;SDS011;62039;50.000;9.064;2023-07-02T02:12:30;1.67;;;1.30;;
73733;SDS011;62039;50.000;9.064;2023-07-02T02:14:57;1.83;;;1.40;;
73733;SDS011;62039;50.000;9.064;2023-07-02T02:17:24;1.10;;;1.00;;
73733;SDS011;62039;50.000;9.064;2023-07-02T02:19:51;2.07;;;1.30;;
73733;SDS011;62039;50.000;9.064;2023-07-02T02:22:18;1.43;;;1.17;;
73733;SDS011;62039;50.000;9.064;2023-07-02T02:24:45;2.37;;;1.30;;
73733;SDS011;62039;50.000;9.064;2023-07-02T02:27:12;2.10;;;1.30;;
73733;SDS011;62039;50.000;9.064;2023-07-02T02:29:41;1.53;;;1.23;;
73733;SDS011;62039;50.000;9.064;2023-07-02T02:32:08;1.20;;;1.03;;
73733;SDS011;62039;50.000;9.064;2023-07-02T02:34:35;1.53;;;1.10;;
73733;SDS011;62039;50.000;9.064;2023-07-02T02:37:03;1.53;;;1.33;;
73733;SDS011;62039;50.000;9.064;2023-07-02T02:39:30;1.37;;;1.20;;
73733;SDS011;62039;50.000;9.064;2023-07-02T02:41:57;2.20;;;1.20;;
73733;SDS011;62039;50.000;9.064;2023-07-02T02:44:23;2.20;;;1.30;;
73733;SDS011;62039;50.000;9.064;2023-07-02T02:46:53;22.73;;;1.63;;
73733;SDS011;62039;50.000;9.064;2023-07-02T02:49:20;3.50;;;1.20;;
73733;SDS011;62039;50.000;9.064;2023-07-02T02:51:47;1.87;;;1.27;;
73733;SDS011;62039;50.000;9.064;2023-07-02T02:54:14;2.23;;;1.37;;
73733;SDS011;62039;50.000;9.064;2023-07-02T02:56:41;1.53;;;1.20;;
73733;SDS011;62039;50.000;9.064;2023-07-02T02:59:09;2.00;;;1.30;;
73733;SDS011;62039;50.000;9.064;2023-07-02T03:01:36;1.93;;;1.30;;
73733;SDS011;62039;50.000;9.064;2023-07-02T03:04:05;1.60;;;1.27;;
73733;SDS011;62039;50.000;9.064;2023-07-02T03:06:32;1.93;;;1.50;;
73733;SDS011;62039;50.000;9.064;2023-07-02T03:08:59;1.60;;;1.30;;
73733;SDS011;62039;50.000;9.064;2023-07-02T03:11:26;1.83;;;1.60;;
73733;SDS011;62039;50.000;9.064;2023-07-02T03:13:53;2.87;;;1.70;;
73733;SDS011;62039;50.000;9.064;2023-07-02T03:16:21;2.90;;;1.87;;
73733;SDS011;62039;50.000;9.064;2023-07-02T03:18:48;2.80;;;2.17;;
73733;SDS011;62039;50.000;9.064;2023-07-02T03:21:17;2.30;;;1.90;;
73733;SDS011;62039;50.000;9.064;2023-07-02T03:23:44;2.40;;;1.93;;
73733;SDS011;62039;50.000;9.064;2023-07-02T03:26:11;2.40;;;2.00;;
73733;SDS011;62039;50.000;9.064;2023-07-02T03:28:38;2.47;;;1.80;;
73733;SDS011;62039;50.000;9.064;2023-07-02T03:31:05;2.67;;;1.97;;
73733;SDS011;62039;50.000;9.064;2023-07-02T03:33:32;3.33;;;1.97;;
73733;SDS011;62039;50.000;9.064;2023-07-02T03:35:59;2.17;;;1.93;;
73733;SDS011;62039;50.000;9.064;2023-07-02T03:38:29;3.53;;;2.20;;
73733;SDS011;62039;50.000;9.064;2023-07-02T03:40:56;3.47;;;2.30;;
73733;SDS011;62039;50.000;9.064;2023-07-02T03:43:23;4.13;;;2.27;;
73733;SDS011;62039;50.000;9.064;2023-07-02T03:45:51;2.60;;;1.80;;
73733;SDS011;62039;50.000;9.064;2023-07-02T03:48:18;3.77;;;2.07;;
73733;SDS011;62039;50.000;9.064;2023-07-02T03:50:45;2.50;;;2.30;;
73733;SDS011;62039;50.000;9.064;2023-07-02T03:53:13;2.70;;;2.27;;
73733;SDS011;62039;50.000;9.064;2023-07-02T03:55:42;3.47;;;2.67;;
73733;SDS011;62039;50.000;9.064;2023-07-02T03:58:09;3.40;;;2.43;;
73733;SDS011;62039;50.000;9.064;2023-07-02T04:00:36;4.10;;;2.40;;
73733;SDS011;62039;50.000;9.064;2023-07-02T04:03:03;3.37;;;2.33;;
73733;SDS011;62039;50.000;9.064;2023-07-02T04:05:30;3.10;;;2.17;;
73733;SDS011;62039;50.000;9.064;2023-07-02T04:07:57;3.87;;;2.20;;
73733;SDS011;62039;50.000;9.064;2023-07-02T04:10:24;4.30;;;2.60;;
73733;SDS011;62039;50.000;9.064;2023-07-02T04:12:54;2.80;;;2.20;;
73733;SDS011;62039;50.000;9.064;2023-07-02T04:15:21;4.37;;;2.67;;
73733;SDS011;62039;50.000;9.064;2023-07-02T04:17:48;2.80;;;2.60;;
73733;SDS011;62039;50.000;9.064;2023-07-02T04:20:15;3.60;;;3.00;;
73733;SDS011;62039;50.000;9.064;2023-07-02T04:22:41;3.60;;;2.70;;
73733;SDS011;62039;50.000;9.064;2023-07-02T04:25:08;3.83;;;2.70;;
73733;SDS011;62039;50.000;9.064;2023-07-02T04:27:45;3.93;;;3.13;;
73733;SDS011;62039;50.000;9.064;2023-07-02T04:30:19;3.30;;;2.53;;
73733;SDS011;62039;50.000;9.064;2023-07-02T04:32:46;4.53;;;3.50;;
73733;SDS011;62039;50.000;9.064;2023-07-02T04:35:13;3.53;;;3.20;;
73733;SDS011;62039;50.000;9.064;2023-07-02T04:37:40;4.37;;;3.33;;
73733;SDS011;62039;50.000;9.064;2023-07-02T04:40:08;5.57;;;3.50;;
73733;SDS011;62039;50.000;9.064;2023-07-02T04:42:36;4.17;;;3.07;;
73733;SDS011;62039;50.000;9.064;2023-07-02T04:45:03;4.70;;;3.00;;
73733;SDS011;62039;50.000;9.064;2023-07-02T04:47:34;4.30;;;3.50;;
73733;SDS011;62039;50.000;9.064;2023-07-02T04:50:02;4.10;;;3.57;;
73733;SDS011;62039;50.000;9.064;2023-07-02T04:52:29;4.33;;;3.10;;
73733;SDS011;62039;50.000;9.064;2023-07-02T04:54:56;3.30;;;3.00;;
73733;SDS011;62039;50.000;9.064;2023-07-02T04:57:23;4.43;;;2.50;;
73733;SDS011;62039;50.000;9.064;2023-07-02T04:59:50;5.33;;;3.53;;
73733;SDS011;62039;50.000;9.064;2023-07-02T05:02:17;3.63;;;2.93;;
73733;SDS011;62039;50.000;9.064;2023-07-02T05:04:46;3.40;;;2.97;;
73733;SDS011;62039;50.000;9.064;2023-07-02T05:07:13;4.13;;;3.30;;
73733;SDS011;62039;50.000;9.064;2023-07-02T05:09:41;4.87;;;3.47;;
73733;SDS011;62039;50.000;9.064;2023-07-02T05:12:09;4.83;;;3.50;;
73733;SDS011;62039;50.000;9.064;2023-07-02T05:14:36;4.83;;;3.50;;
73733;SDS011;62039;50.000;9.064;2023-07-02T05:17:03;4.80;;;3.30;;
73733;SDS011;62039;50.000;9.064;2023-07-02T05:19:30;3.40;;;2.93;;
73733;SDS011;62039;50.000;9.064;2023-07-02T05:22:00;3.93;;;3.33;;
73733;SDS011;62039;50.000;9.064;2023-07-02T05:24:26;6.20;;;3.50;;
73733;SDS011;62039;50.000;9.064;2023-07-02T05:26:53;4.13;;;3.63;;
73733;SDS011;62039;50.000;9.064;2023-07-02T05:29:20;6.00;;;3.63;;
73733;SDS011;62039;50.000;9.064;2023-07-02T05:31:47;3.47;;;2.77;;
73733;SDS011;62039;50.000;9.064;2023-07-02T05:34:14;5.50;;;3.53;;
73733;SDS011;62039;50.000;9.064;2023-07-02T05:36:41;4.87;;;3.43;;
73733;SDS011;62039;50.000;9.064;2023-07-02T05:39:11;5.07;;;3.67;;
73733;SDS011;62039;50.000;9.064;2023-07-02T05:41:38;5.83;;;4.10;;
73733;SDS011;62039;50.000;9.064;2023-07-02T05:44:05;5.57;;;3.57;;
73733;SDS011;62039;50.000;9.064;2023-07-02T05:46:32;4.80;;;3.43;;
73733;SDS011;62039;50.000;9.064;2023-07-02T05:48:59;4.50;;;3.80;;
73733;SDS011;62039;50.000;9.064;2023-07-02T05:51:26;4.03;;;3.17;;
73733;SDS011;62039;50.000;9.064;2023-07-02T05:53:53;4.43;;;3.50;;
73733;SDS011;62039;50.000;9.064;2023-07-02T05:56:22;5.43;;;3.30;;
73733;SDS011;62039;50.000;9.064;2023-07-02T05:58:49;5.37;;;3.80;;
73733;SDS011;62039;50.000;9.064;2023-07-02T06:01:16;5.67;;;4.10;;
73733;SDS011;62039;50.000;9.064;2023-07-02T06:03:43;3.97;;;3.07;;
73733;SDS011;62039;50.000;9.064;2023-07-02T06:06:10;4.60;;;3.30;;
73733;SDS011;62039;50.000;9.064;2023-07-02T06:08:37;4.33;;;3.57;;
73733;SDS011;62039;50.000;9.064;2023-07-02T06:11:04;5.07;;;3.80;;
73733;SDS011;62039;50.000;9.064;2023-07-02T06:13:34;4.90;;;4.00;;
73733;SDS011;62039;50.000;9.064;2023-07-02T06:16:01;7.80;;;5.27;;
73733;SDS011;62039;50.000;9.064;2023-07-02T06:18:28;8.00;;;5.67;;
73733;SDS011;62039;50.000;9.064;2023-07-02T06:20:55;7.23;;;4.83;;
73733;SDS011;62039;50.000;9.064;2023-07-02T06:23:22;7.43;;;4.83;;
73733;SDS011;62039;50.000;9.064;2023-07-02T06:25:49;8.30;;;6.03;;
73733;SDS011;62039;50.000;9.064;2023-07-02T06:28:16;7.37;;;5.70;;
73733;SDS011;62039;50.000;9.064;2023-07-02T06:30:46;6.63;;;5.60;;
73733;SDS011;62039;50.000;9.064;2023-07-02T06:33:13;6.07;;;5.40;;
73733;SDS011;62039;50.000;9.064;2023-07-02T06:35:40;6.33;;;4.90;;
73733;SDS011;62039;50.000;9.064;2023-07-02T06:38:07;11.17;;;7.07;;
73733;SDS011;62039;50.000;9.064;2023-07-02T06:40:34;7.97;;;5.83;;
73733;SDS011;62039;50.000;9.064;2023-07-02T06:43:01;7.47;;;5.37;;
73733;SDS011;62039;50.000;9.064;2023-07-02T06:45:28;5.67;;;5.07;;
73733;SDS011;62039;50.000;9.064;2023-07-02T06:48:00;8.60;;;5.27;;
73733;SDS011;62039;50.000;9.064;2023-07-02T06:50:27;7.13;;;5.30;;
73733;SDS011;62039;50.000;9.064;2023-07-02T06:52:54;6.30;;;5.60;;
73733;SDS011;62039;50.000;9.064;2023-07-02T06:55:21;6.70;;;5.20;;
73733;SDS011;62039;50.000;9.064;2023-07-02T06:57:48;8.60;;;6.20;;
73733;SDS011;62039;50.000;9.064;2023-07-02T07:00:15;9.53;;;6.00;;
73733;SDS011;62039;50.000;9.064;2023-07-02T07:02:42;7.87;;;5.57;;
73733;SDS011;62039;50.000;9.064;2023-07-02T07:05:12;6.53;;;5.23;;
73733;SDS011;62039;50.000;9.064;2023-07-02T07:07:39;6.13;;;4.83;;
73733;SDS011;62039;50.000;9.064;2023-07-02T07:10:07;8.40;;;6.40;;
73733;SDS011;62039;50.000;9.064;2023-07-02T07:12:35;6.43;;;5.30;;
73733;SDS011;62039;50.000;9.064;2023-07-02T07:15:02;7.10;;;5.93;;
73733;SDS011;62039;50.000;9.064;2023-07-02T07:17:29;7.23;;;5.80;;
73733;SDS011;62039;50.000;9.064;2023-07-02T07:19:56;10.27;;;7.20;;
73733;SDS011;62039;50.000;9.064;2023-07-02T07:22:26;7.43;;;5.80;;
73733;SDS011;62039;50.000;9.064;2023-07-02T07:24:52;7.13;;;5.70;;
73733;SDS011;62039;50.000;9.064;2023-07-02T07:27:19;5.87;;;5.27;;
73733;SDS011;62039;50.000;9.064;2023-07-02T07:29:46;8.27;;;5.97;;
73733;SDS011;62039;50.000;9.064;2023-07-02T07:32:13;8.17;;;6.10;;
73733;SDS011;62039;50.000;9.064;2023-07-02T07:34:40;7.70;;;5.90;;
73733;SDS011;62039;50.000;9.064;2023-07-02T07:37:07;7.83;;;5.60;;
73733;SDS011;62039;50.000;9.064;2023-07-02T07:39:37;7.23;;;6.17;;
73733;SDS011;62039;50.000;9.064;2023-07-02T07:42:05;8.47;;;6.47;;
73733;SDS011;62039;50.000;9.064;2023-07-02T07:44:32;7.10;;;5.60;;
73733;SDS011;62039;50.000;9.064;2023-07-02T07:46:59;7.10;;;5.63;;
73733;SDS011;62039;50.000;9.064;2023-07-02T07:49:26;9.57;;;6.37;;
73733;SDS011;62039;50.000;9.064;2023-07-02T07:51:53;9.57;;;6.90;;
73733;SDS011;62039;50.000;9.064;2023-07-02T07:54:20;8.47;;;6.70;;
73733;SDS011;62039;50.000;9.064;2023-07-02T07:56:50;8.13;;;6.87;;
73733;SDS011;62039;50.000;9.064;2023-07-02T07:59:17;8.27;;;6.23;;
73733;SDS011;62039;50.000;9.064;2023-07-02T08:01:44;8.00;;;5.93;;
73733;SDS011;62039;50.000;9.064;2023-07-02T08:04:11;8.10;;;5.43;;
73733;SDS011;62039;50.000;9.064;2023-07-02T08:06:38;8.37;;;6.23;;
73733;SDS011;62039;50.000;9.064;2023-07-02T08:09:05;7.80;;;5.80;;
73733;SDS011;62039;50.000;9.064;2023-07-02T08:11:32;8.70;;;6.33;;
73733;SDS011;62039;50.000;9.064;2023-07-02T08:14:01;6.77;;;5.40;;
73733;SDS011;62039;50.000;9.064;2023-07-02T08:16:28;9.17;;;6.37;;
73733;SDS011;62039;50.000;9.064;2023-07-02T08:18:55;7.40;;;5.80;;
73733;SDS011;62039;50.000;9.064;2023-07-02T08:21:22;10.27;;;7.60;;
73733;SDS011;62039;50.000;9.064;2023-07-02T08:23:49;7.67;;;6.13;;
73733;SDS011;62039;50.000;9.064;2023-07-02T08:26:16;9.23;;;6.67;;
73733;SDS011;62039;50.000;9.064;2023-07-02T08:28:43;10.40;;;6.53;;
73733;SDS011;62039;50.000;9.064;2023-07-02T08:31:13;7.77;;;6.00;;
73733;SDS011;62039;50.000;9.064;2023-07-02T08:33:40;8.27;;;5.70;;
73733;SDS011;62039;50.000;9.064;2023-07-02T08:36:07;10.73;;;6.93;;
73733;SDS011;62039;50.000;9.064;2023-07-02T08:38:34;8.90;;;7.00;;
73733;SDS011;62039;50.000;9.064;2023-07-02T08:41:01;8.03;;;6.30;;
73733;SDS011;62039;50.000;9.064;2023-07-02T08:43:28;8.17;;;6.33;;
73733;SDS011;62039;50.000;9.064;2023-07-02T08:45:56;7.17;;;5.77;;
73733;SDS011;62039;50.000;9.064;2023-07-02T08:48:26;6.87;;;5.80;;
73733;SDS011;62039;50.000;9.064;2023-07-02T08:50:53;8.30;;;6.37;;
73733;SDS011;62039;50.000;9.064;2023-07-02T08:53:21;8.10;;;6.07;;
73733;SDS011;62039;50.000;9.064;2023-07-02T08:55:48;8.90;;;7.37;;
73733;SDS011;62039;50.000;9.064;2023-07-02T08:58:15;8.00;;;6.50;;
73733;SDS011;62039;50.000;9.064;2023-07-02T09:00:52;9.43;;;7.07;;
73733;SDS011;62039;50.000;9.064;2023-07-02T09:03:33;9.93;;;7.40;;
73733;SDS011;62039;50.000;9.064;2023-07-02T09:06:00;6.80;;;5.67;;
73733;SDS011;62039;50.000;9.064;2023-07-02T09:08:28;7.47;;;6.20;;
73733;SDS011;62039;50.000;9.064;2023-07-02T09:11:04;6.77;;;5.50;;
73733;SDS011;62039;50.000;9.064;2023-07-02T09:13:41;8.10;;;5.97;;
73733;SDS011;62039;50.000;9.064;2023-07-02T09:16:09;7.20;;;5.13;;
73733;SDS011;62039;50.000;9.064;2023-07-02T09:18:57;7.43;;;5.37;;
73733;SDS011;62039;50.000;9.064;2023-07-02T09:21:25;6.23;;;5.13;;
73733;SDS011;62039;50.000;9.064;2023-07-02T09:23:53;6.70;;;6.00;;
73733;SDS011;62039;50.000;9.064;2023-07-02T09:26:20;6.77;;;5.03;;
73733;SDS011;62039;50.000;9.064;2023-07-02T09:28:47;7.17;;;6.13;;
73733;SDS011;62039;50.000;9.064;2023-07-02T09:31:16;7.70;;;5.90;;
73733;SDS011;62039;50.000;9.064;2023-07-02T09:33:43;9.17;;;6.40;;
73733;SDS011;62039;50.000;9.064;2023-07-02T09:36:13;9.03;;;6.43;;
73733;SDS011;62039;50.000;9.064;2023-07-02T09:38:40;7.13;;;6.23;;
73733;SDS011;62039;50.000;9.064;2023-07-02T09:41:07;5.90;;;4.83;;
73733;SDS011;62039;50.000;9.064;2023-07-02T09:43:34;6.50;;;5.20;;
73733;SDS011;62039;50.000;9.064;2023-07-02T09:46:02;6.57;;;5.60;;
73733;SDS011;62039;50.000;9.064;2023-07-02T09:48:29;6.50;;;4.57;;
73733;SDS011;62039;50.000;9.064;2023-07-02T09:51:01;5.30;;;4.77;;
73733;SDS011;62039;50.000;9.064;2023-07-02T09:53:32;8.23;;;5.73;;
73733;SDS011;62039;50.000;9.064;2023-07-02T09:55:59;5.70;;;5.10;;
73733;SDS011;62039;50.000;9.064;2023-07-02T09:58:26;6.23;;;4.80;;
73733;SDS011;62039;50.000;9.064;2023-07-02T10:00:54;5.37;;;4.27;;
73733;SDS011;62039;50.000;9.064;2023-07-02T10:03:30;5.90;;;5.20;;
73733;SDS011;62039;50.000;9.064;2023-07-02T10:06:04;6.33;;;5.13;;
73733;SDS011;62039;50.000;9.064;2023-07-02T10:08:34;7.37;;;5.57;;
73733;SDS011;62039;50.000;9.064;2023-07-02T10:11:07;7.77;;;6.20;;
73733;SDS011;62039;50.000;9.064;2023-07-02T10:13:35;7.03;;;5.90;;
73733;SDS011;62039;50.000;9.064;2023-07-02T10:16:02;5.50;;;4.87;;
73733;SDS011;62039;50.000;9.064;2023-07-02T10:18:30;5.70;;;5.10;;
73733;SDS011;62039;50.000;9.064;2023-07-02T10:20:57;7.43;;;5.60;;
73733;SDS011;62039;50.000;9.064;2023-07-02T10:23:34;7.40;;;6.33;;
73733;SDS011;62039;50.000;9.064;2023-07-02T10:26:13;5.83;;;5.23;;
73733;SDS011;62039;50.000;9.064;2023-07-02T10:28:41;5.90;;;4.90;;
73733;SDS011;62039;50.000;9.064;2023-07-02T10:31:17;5.77;;;4.57;;
73733;SDS011;62039;50.000;9.064;2023-07-02T10:33:45;6.10;;;4.77;;
73733;SDS011;62039;50.000;9.064;2023-07-02T10:36:19;10.53;;;5.80;;
73733;SDS011;62039;50.000;9.064;2023-07-02T10:38:49;5.60;;;5.00;;
73733;SDS011;62039;50.000;9.064;2023-07-02T10:41:23;6.87;;;5.77;;
73733;SDS011;62039;50.000;9.064;2023-07-02T10:43:51;6.93;;;5.43;;
73733;SDS011;62039;50.000;9.064;2023-07-02T10:46:19;5.00;;;4.50;;
73733;SDS011;62039;50.000;9.064;2023-07-02T10:48:52;6.23;;;5.10;;
73733;SDS011;62039;50.000;9.064;2023-07-02T10:51:20;5.77;;;4.93;;
73733;SDS011;62039;50.000;9.064;2023-07-02T10:53:58;6.90;;;5.57;;
73733;SDS011;62039;50.000;9.064;2023-07-02T10:56:26;5.20;;;4.53;;
73733;SDS011;62039;50.000;9.064;2023-07-02T10:58:53;7.00;;;5.70;;
73733;SDS011;62039;50.000;9.064;2023-07-02T11:01:23;6.97;;;6.23;;
73733;SDS011;62039;50.000;9.064;2023-07-02T11:03:55;6.80;;;5.90;;
73733;SDS011;62039;50.000;9.064;2023-07-02T11:06:23;6.67;;;5.70;;
73733;SDS011;62039;50.000;9.064;2023-07-02T11:08:50;9.13;;;6.20;;
73733;SDS011;62039;50.000;9.064;2023-07-02T11:11:19;7.40;;;6.30;;
73733;SDS011;62039;50.000;9.064;2023-07-02T11:13:47;6.93;;;5.57;;
73733;SDS011;62039;50.000;9.064;2023-07-02T11:16:18;7.17;;;5.73;;
73733;SDS011;62039;50.000;9.064;2023-07-02T11:18:46;6.67;;;5.60;;
73733;SDS011;62039;50.000;9.064;2023-07-02T11:21:13;6.93;;;5.60;;
73733;SDS011;62039;50.000;9.064;2023-07-02T11:23:40;9.33;;;6.60;;
73733;SDS011;62039;50.000;9.064;2023-07-02T11:26:07;7.20;;;6.17;;
73733;SDS011;62039;50.000;9.064;2023-07-02T11:28:47;7.47;;;6.40;;
73733;SDS011;62039;50.000;9.064;2023-07-02T11:31:23;6.47;;;5.57;;
73733;SDS011;62039;50.000;9.064;2023-07-02T11:33:51;7.87;;;6.03;;
73733;SDS011;62039;50.000;9.064;2023-07-02T11:36:22;7.37;;;6.60;;
73733;SDS011;62039;50.000;9.064;2023-07-02T11:38:50;8.63;;;6.47;;
73733;SDS011;62039;50.000;9.064;2023-07-02T11:41:17;8.13;;;7.17;;
73733;SDS011;62039;50.000;9.064;2023-07-02T11:43:50;13.10;;;6.87;;
73733;SDS011;62039;50.000;9.064;2023-07-02T11:46:17;8.40;;;6.63;;
73733;SDS011;62039;50.000;9.064;2023-07-02T11:48:44;9.23;;;7.50;;
73733;SDS011;62039;50.000;9.064;2023-07-02T11:51:11;9.20;;;6.97;;
73733;SDS011;62039;50.000;9.064;2023-07-02T11:53:38;9.80;;;7.80;;
73733;SDS011;62039;50.000;9.064;2023-07-02T11:56:05;9.63;;;7.80;;
73733;SDS011;62039;50.000;9.064;2023-07-02T11:58:32;8.07;;;6.93;;
73733;SDS011;62039;50.000;9.064;2023-07-02T12:01:01;8.40;;;6.83;;
73733;SDS011;62039;50.000;9.064;2023-07-02T12:03:28;7.97;;;6.80;;
73733;SDS011;62039;50.000;9.064;2023-07-02T12:05:55;7.57;;;6.03;;
73733;SDS011;62039;50.000;9.064;2023-07-02T12:08:22;8.73;;;7.07;;
73733;SDS011;62039;50.000;9.064;2023-07-02T12:10:49;10.90;;;8.33;;
73733;SDS011;62039;50.000;9.064;2023-07-02T12:13:16;8.83;;;7.67;;
73733;SDS011;62039;50.000;9.064;2023-07-02T12:15:43;8.37;;;7.30;;
73733;SDS011;62039;50.000;9.064;2023-07-02T12:18:13;8.50;;;7.33;;
73733;SDS011;62039;50.000;9.064;2023-07-02T12:20:40;7.37;;;6.67;;
73733;SDS011;62039;50.000;9.064;2023-07-02T12:23:07;8.60;;;7.70;;
73733;SDS011;62039;50.000;9.064;2023-07-02T12:25:34;11.10;;;7.47;;
73733;SDS011;62039;50.000;9.064;2023-07-02T12:28:01;7.57;;;6.87;;
73733;SDS011;62039;50.000;9.064;2023-07-02T12:30:29;9.53;;;7.40;;
73733;SDS011;62039;50.000;9.064;2023-07-02T12:32:57;8.53;;;7.40;;
73733;SDS011;62039;50.000;9.064;2023-07-02T12:35:26;7.93;;;7.13;;
73733;SDS011;62039;50.000;9.064;2023-07-02T12:37:53;10.17;;;8.47;;
73733;SDS011;62039;50.000;9.064;2023-07-02T12:40:20;8.37;;;7.27;;
73733;SDS011;62039;50.000;9.064;2023-07-02T12:42:47;9.63;;;7.60;;
73733;SDS011;62039;50.000;9.064;2023-07-02T12:45:14;8.77;;;7.87;;
73733;SDS011;62039;50.000;9.064;2023-07-02T12:47:45;8.93;;;7.13;;
73733;SDS011;62039;50.000;9.064;2023-07-02T12:50:12;8.13;;;7.33;;
73733;SDS011;62039;50.000;9.064;2023-07-02T12:52:41;8.97;;;8.07;;
73733;SDS011;62039;50.000;9.064;2023-07-02T12:55:08;9.87;;;8.40;;
73733;SDS011;62039;50.000;9.064;2023-07-02T12:57:35;9.57;;;8.43;;
73733;SDS011;62039;50.000;9.064;2023-07-02T13:00:03;9.47;;;7.93;;
73733;SDS011;62039;50.000;9.064;2023-07-02T13:02:31;9.27;;;8.37;;
73733;SDS011;62039;50.000;9.064;2023-07-02T13:04:58;10.30;;;7.73;;
73733;SDS011;62039;50.000;9.064;2023-07-02T13:07:25;9.40;;;7.80;;
73733;SDS011;62039;50.000;9.064;2023-07-02T13:09:55;10.53;;;8.60;;
73733;SDS011;62039;50.000;9.064;2023-07-02T13:12:22;9.60;;;8.50;;
73733;SDS011;62039;50.000;9.064;2023-07-02T13:14:49;8.33;;;7.53;;
73733;SDS011;62039;50.000;9.064;2023-07-02T13:17:16;9.87;;;8.10;;
73733;SDS011;62039;50.000;9.064;2023-07-02T13:19:43;8.90;;;7.90;;
73733;SDS011;62039;50.000;9.064;2023-07-02T13:22:10;10.97;;;8.93;;
73733;SDS011;62039;50.000;9.064;2023-07-02T13:24:37;10.63;;;9.53;;
73733;SDS011;62039;50.000;9.064;2023-07-02T13:27:07;9.93;;;8.20;;
73733;SDS011;62039;50.000;9.064;2023-07-02T13:29:39;9.63;;;8.63;;
73733;SDS011;62039;50.000;9.064;2023-07-02T13:32:06;9.73;;;8.67;;
73733;SDS011;62039;50.000;9.064;2023-07-02T13:34:34;9.30;;;8.40;;
73733;SDS011;62039;50.000;9.064;2023-07-02T13:37:01;12.47;;;9.00;;
73733;SDS011;62039;50.000;9.064;2023-07-02T13:39:28;10.40;;;9.13;;
73733;SDS011;62039;50.000;9.064;2023-07-02T13:41:55;10.53;;;9.13;;
73733;SDS011;62039;50.000;9.064;2023-07-02T13:44:24;12.67;;;9.07;;
73733;SDS011;62039;50.000;9.064;2023-07-02T13:46:51;11.27;;;9.33;;
73733;SDS011;62039;50.000;9.064;2023-07-02T13:49:18;10.33;;;8.97;;
73733;SDS011;62039;50.000;9.064;2023-07-02T13:51:46;12.20;;;9.20;;
73733;SDS011;62039;50.000;9.064;2023-07-02T13:54:12;9.90;;;8.47;;
73733;SDS011;62039;50.000;9.064;2023-07-02T13:56:39;10.67;;;8.57;;
73733;SDS011;62039;50.000;9.064;2023-07-02T13:59:09;10.57;;;8.33;;
73733;SDS011;62039;50.000;9.064;2023-07-02T14:01:36;10.83;;;8.80;;
73733;SDS011;62039;50.000;9.064;2023-07-02T14:04:03;8.67;;;7.37;;
73733;SDS011;62039;50.000;9.064;2023-07-02T14:06:31;8.50;;;6.93;;
73733;SDS011;62039;50.000;9.064;2023-07-02T14:08:58;8.70;;;7.60;;
73733;SDS011;62039;50.000;9.064;2023-07-02T14:11:25;8.60;;;7.40;;
73733;SDS011;62039;50.000;9.064;2023-07-02T14:13:53;8.77;;;7.80;;
73733;SDS011;62039;50.000;9.064;2023-07-02T14:16:23;8.73;;;7.83;;
73733;SDS011;62039;50.000;9.064;2023-07-02T14:18:50;9.90;;;7.70;;
73733;SDS011;62039;50.000;9.064;2023-07-02T14:21:17;8.33;;;7.20;;
73733;SDS011;62039;50.000;9.064;2023-07-02T14:23:44;8.40;;;7.50;;
73733;SDS011;62039;50.000;9.064;2023-07-02T14:26:11;9.77;;;7.33;;
73733;SDS011;62039;50.000;9.064;2023-07-02T14:28:38;8.43;;;7.00;;
73733;SDS011;62039;50.000;9.064;2023-07-02T14:31:05;8.30;;;6.80;;
73733;SDS011;62039;50.000;9.064;2023-07-02T14:33:36;8.63;;;7.73;;
73733;SDS011;62039;50.000;9.064;2023-07-02T14:36:04;9.43;;;7.97;;
73733;SDS011;62039;50.000;9.064;2023-07-02T14:38:32;8.50;;;7.60;;
73733;SDS011;62039;50.000;9.064;2023-07-02T14:40:59;7.30;;;6.60;;
73733;SDS011;62039;50.000;9.064;2023-07-02T14:43:27;8.53;;;7.47;;
73733;SDS011;62039;50.000;9.064;2023-07-02T14:45:56;7.57;;;6.77;;
73733;SDS011;62039;50.000;9.064;2023-07-02T14:48:28;7.80;;;7.00;;
73733;SDS011;62039;50.000;9.064;2023-07-02T14:50:59;10.50;;;8.43;;